KPOF

Details ICAO KPOF (POF)
Name POPLAR BLUFF MUNI
Region United States
Timezone America/Chicago (UTC-6.0)
Plans Departing 4
Arriving 5
Stats Elevation 331 ft / 101 m (AMSL)
Location 36.773935° -90.324855°
Runways 1
Magnetic Variation 1.262° W
Sunrise 2017-12-17 13:09:30 UTC / 2017-12-17 07:09:30 Local
Sunset 2017-12-17 22:48:19 UTC / 2017-12-17 16:48:19 Local
Advertisement - Login to hide

Runways

ID Width Length Bearing (true) Bearing (mag) Surface Threshold Offset Overrun Length
18 100 ft / 30 m 5,020 ft / 1,530 m 181.39° 182.65° Asphalt 0 ft / 0 m 0 ft / 0 m
36 100 ft / 30 m 5,020 ft / 1,530 m 1.39° 2.65° Asphalt 300 ft / 91 m 0 ft / 0 m

Approach Navaids

Runway Type Ident Frequency Range Bearing (true) Bearing (mag) Slope Elevation
36 Localiser IFDI 108.70 MHz 18 nm / 33 km 1.40° 2.66° - 327 ft / 100 m (AMSL)

Map

Weather


0- 5 10 15 20 25 30 35+ Temperature / ° C

Clouds and Precipitation
Forecast for 2017-12-17 12:00 UTC. Updated an hour ago

Ground ~20,000 ft ~40,000 ft Winds

METAR

KPOF 170753Z AUTO 18006KT 10SM BKN110 07/01 A3013 RMK AO2 SLP206 T00670006

TAF

Not found

Frequencies

Recorded 124.22 MHz ASOS
Unicom 123.00 MHz CTAF/UNICOM
Warning: Do not use this data for real-world aviation or navigation. No guarantee of current accuracy is given.